sensor_id;sensor_type;location;lat;lon;timestamp;P1;durP1;ratioP1;P2;durP2;ratioP2
29026;SDS011;16120;48.608;9.092;2023-09-18T00:00:53;106.97;;;10.23;;
29026;SDS011;16120;48.608;9.092;2023-09-18T00:04:48;106.97;;;10.07;;
29026;SDS011;16120;48.608;9.092;2023-09-18T00:08:44;107.43;;;10.53;;
29026;SDS011;16120;48.608;9.092;2023-09-18T00:12:40;106.70;;;9.60;;
29026;SDS011;16120;48.608;9.092;2023-09-18T00:16:35;106.83;;;10.10;;
29026;SDS011;16120;48.608;9.092;2023-09-18T00:20:30;108.07;;;10.30;;
29026;SDS011;16120;48.608;9.092;2023-09-18T00:24:27;106.93;;;9.83;;
29026;SDS011;16120;48.608;9.092;2023-09-18T00:28:22;107.13;;;10.33;;
29026;SDS011;16120;48.608;9.092;2023-09-18T00:32:17;106.53;;;10.30;;
29026;SDS011;16120;48.608;9.092;2023-09-18T00:36:12;107.00;;;9.77;;
29026;SDS011;16120;48.608;9.092;2023-09-18T00:40:10;107.63;;;10.87;;
29026;SDS011;16120;48.608;9.092;2023-09-18T00:44:05;107.43;;;10.70;;
29026;SDS011;16120;48.608;9.092;2023-09-18T00:48:00;107.22;;;10.23;;
29026;SDS011;16120;48.608;9.092;2023-09-18T00:51:55;107.40;;;10.30;;
29026;SDS011;16120;48.608;9.092;2023-09-18T00:55:53;106.80;;;9.85;;
29026;SDS011;16120;48.608;9.092;2023-09-18T00:59:50;107.00;;;10.47;;
29026;SDS011;16120;48.608;9.092;2023-09-18T01:03:45;107.97;;;11.23;;
29026;SDS011;16120;48.608;9.092;2023-09-18T01:07:40;107.30;;;10.27;;
29026;SDS011;16120;48.608;9.092;2023-09-18T01:11:39;107.10;;;11.10;;
29026;SDS011;16120;48.608;9.092;2023-09-18T01:15:39;107.37;;;10.40;;
29026;SDS011;16120;48.608;9.092;2023-09-18T01:19:39;107.87;;;11.03;;
29026;SDS011;16120;48.608;9.092;2023-09-18T01:23:36;107.40;;;11.10;;
29026;SDS011;16120;48.608;9.092;2023-09-18T01:27:31;108.07;;;11.30;;
29026;SDS011;16120;48.608;9.092;2023-09-18T01:31:26;107.67;;;11.50;;
29026;SDS011;16120;48.608;9.092;2023-09-18T01:35:21;108.10;;;10.50;;
29026;SDS011;16120;48.608;9.092;2023-09-18T01:39:18;107.17;;;10.87;;
29026;SDS011;16120;48.608;9.092;2023-09-18T01:55:25;106.87;;;11.07;;
29026;SDS011;16120;48.608;9.092;2023-09-18T01:59:20;107.47;;;12.23;;
29026;SDS011;16120;48.608;9.092;2023-09-18T02:03:16;106.73;;;11.10;;
29026;SDS011;16120;48.608;9.092;2023-09-18T02:07:11;107.40;;;11.77;;
29026;SDS011;16120;48.608;9.092;2023-09-18T02:11:07;106.60;;;12.27;;
29026;SDS011;16120;48.608;9.092;2023-09-18T02:15:03;106.47;;;11.60;;
29026;SDS011;16120;48.608;9.092;2023-09-18T02:18:58;106.67;;;11.27;;
29026;SDS011;16120;48.608;9.092;2023-09-18T02:22:53;106.37;;;11.60;;
29026;SDS011;16120;48.608;9.092;2023-09-18T02:26:50;106.80;;;12.43;;
29026;SDS011;16120;48.608;9.092;2023-09-18T02:30:45;106.67;;;11.30;;
29026;SDS011;16120;48.608;9.092;2023-09-18T02:34:40;106.37;;;11.40;;
29026;SDS011;16120;48.608;9.092;2023-09-18T02:38:35;106.97;;;12.10;;
29026;SDS011;16120;48.608;9.092;2023-09-18T02:42:32;107.27;;;11.67;;
29026;SDS011;16120;48.608;9.092;2023-09-18T02:46:27;107.07;;;12.00;;
29026;SDS011;16120;48.608;9.092;2023-09-18T02:50:22;107.10;;;10.73;;
29026;SDS011;16120;48.608;9.092;2023-09-18T02:54:17;105.85;;;10.85;;
29026;SDS011;16120;48.608;9.092;2023-09-18T02:58:14;106.60;;;11.70;;
29026;SDS011;16120;48.608;9.092;2023-09-18T03:02:09;106.17;;;10.70;;
29026;SDS011;16120;48.608;9.092;2023-09-18T03:06:04;107.40;;;11.00;;
29026;SDS011;16120;48.608;9.092;2023-09-18T03:10:00;106.77;;;11.20;;
29026;SDS011;16120;48.608;9.092;2023-09-18T03:13:56;107.73;;;11.20;;
29026;SDS011;16120;48.608;9.092;2023-09-18T03:17:51;106.60;;;10.80;;
29026;SDS011;16120;48.608;9.092;2023-09-18T03:21:47;106.70;;;11.00;;
29026;SDS011;16120;48.608;9.092;2023-09-18T03:25:42;107.80;;;11.30;;
29026;SDS011;16120;48.608;9.092;2023-09-18T03:29:38;106.57;;;10.90;;
29026;SDS011;16120;48.608;9.092;2023-09-18T03:33:34;107.07;;;12.30;;
29026;SDS011;16120;48.608;9.092;2023-09-18T03:37:29;107.40;;;11.90;;
29026;SDS011;16120;48.608;9.092;2023-09-18T03:41:24;106.67;;;11.00;;
29026;SDS011;16120;48.608;9.092;2023-09-18T03:45:21;106.27;;;10.50;;
29026;SDS011;16120;48.608;9.092;2023-09-18T03:49:16;106.70;;;10.67;;
29026;SDS011;16120;48.608;9.092;2023-09-18T03:53:11;107.00;;;10.77;;
29026;SDS011;16120;48.608;9.092;2023-09-18T03:57:06;106.60;;;10.90;;
29026;SDS011;16120;48.608;9.092;2023-09-18T04:01:03;106.50;;;10.70;;
29026;SDS011;16120;48.608;9.092;2023-09-18T04:04:58;106.67;;;11.40;;
29026;SDS011;16120;48.608;9.092;2023-09-18T04:08:53;107.97;;;12.73;;
29026;SDS011;16120;48.608;9.092;2023-09-18T04:12:48;106.07;;;11.27;;
29026;SDS011;16120;48.608;9.092;2023-09-18T04:16:45;105.97;;;11.00;;
29026;SDS011;16120;48.608;9.092;2023-09-18T04:20:40;107.07;;;12.70;;
29026;SDS011;16120;48.608;9.092;2023-09-18T04:24:35;106.57;;;11.80;;
29026;SDS011;16120;48.608;9.092;2023-09-18T04:28:31;106.30;;;11.13;;
29026;SDS011;16120;48.608;9.092;2023-09-18T04:32:28;106.17;;;11.93;;
29026;SDS011;16120;48.608;9.092;2023-09-18T04:36:23;106.47;;;11.03;;
29026;SDS011;16120;48.608;9.092;2023-09-18T04:40:18;105.80;;;11.10;;
29026;SDS011;16120;48.608;9.092;2023-09-18T04:44:13;106.07;;;11.63;;
29026;SDS011;16120;48.608;9.092;2023-09-18T04:48:10;106.17;;;11.30;;
29026;SDS011;16120;48.608;9.092;2023-09-18T04:52:05;106.13;;;11.63;;
29026;SDS011;16120;48.608;9.092;2023-09-18T04:56:00;107.17;;;11.53;;
29026;SDS011;16120;48.608;9.092;2023-09-18T04:59:56;106.30;;;11.30;;
29026;SDS011;16120;48.608;9.092;2023-09-18T05:03:52;107.10;;;12.40;;
29026;SDS011;16120;48.608;9.092;2023-09-18T05:07:47;106.73;;;11.93;;
29026;SDS011;16120;48.608;9.092;2023-09-18T05:11:43;106.60;;;11.50;;
29026;SDS011;16120;48.608;9.092;2023-09-18T05:15:38;106.27;;;11.40;;
29026;SDS011;16120;48.608;9.092;2023-09-18T05:19:34;106.70;;;11.70;;
29026;SDS011;16120;48.608;9.092;2023-09-18T05:23:30;106.87;;;11.20;;
29026;SDS011;16120;48.608;9.092;2023-09-18T05:27:25;106.93;;;11.80;;
29026;SDS011;16120;48.608;9.092;2023-09-18T05:31:20;106.87;;;12.00;;
29026;SDS011;16120;48.608;9.092;2023-09-18T05:35:17;106.67;;;10.67;;
29026;SDS011;16120;48.608;9.092;2023-09-18T05:39:12;106.93;;;11.57;;
29026;SDS011;16120;48.608;9.092;2023-09-18T05:43:07;107.70;;;12.47;;
29026;SDS011;16120;48.608;9.092;2023-09-18T05:47:03;106.77;;;11.60;;
29026;SDS011;16120;48.608;9.092;2023-09-18T05:50:59;106.70;;;11.00;;
29026;SDS011;16120;48.608;9.092;2023-09-18T05:54:54;106.27;;;11.03;;
29026;SDS011;16120;48.608;9.092;2023-09-18T05:58:50;106.13;;;11.00;;
29026;SDS011;16120;48.608;9.092;2023-09-18T06:02:45;106.77;;;11.77;;
29026;SDS011;16120;48.608;9.092;2023-09-18T06:06:41;106.57;;;11.70;;
29026;SDS011;16120;48.608;9.092;2023-09-18T06:10:36;106.40;;;11.80;;
29026;SDS011;16120;48.608;9.092;2023-09-18T06:14:32;106.57;;;11.80;;
29026;SDS011;16120;48.608;9.092;2023-09-18T06:18:27;106.27;;;11.50;;
29026;SDS011;16120;48.608;9.092;2023-09-18T06:22:23;106.37;;;11.60;;
29026;SDS011;16120;48.608;9.092;2023-09-18T06:26:19;107.77;;;11.30;;
29026;SDS011;16120;48.608;9.092;2023-09-18T06:30:14;106.07;;;12.00;;
29026;SDS011;16120;48.608;9.092;2023-09-18T06:34:09;106.57;;;10.90;;
29026;SDS011;16120;48.608;9.092;2023-09-18T06:38:06;106.57;;;10.77;;
29026;SDS011;16120;48.608;9.092;2023-09-18T06:42:01;105.57;;;10.90;;
29026;SDS011;16120;48.608;9.092;2023-09-18T06:45:56;105.93;;;11.80;;
29026;SDS011;16120;48.608;9.092;2023-09-18T06:49:51;105.80;;;11.73;;
29026;SDS011;16120;48.608;9.092;2023-09-18T06:53:48;104.90;;;11.23;;
29026;SDS011;16120;48.608;9.092;2023-09-18T06:57:43;105.70;;;10.83;;
29026;SDS011;16120;48.608;9.092;2023-09-18T07:01:38;106.17;;;12.50;;
29026;SDS011;16120;48.608;9.092;2023-09-18T07:05:33;106.50;;;12.10;;
29026;SDS011;16120;48.608;9.092;2023-09-18T07:09:30;105.97;;;12.23;;
29026;SDS011;16120;48.608;9.092;2023-09-18T07:13:25;105.17;;;11.17;;
29026;SDS011;16120;48.608;9.092;2023-09-18T07:17:20;104.70;;;10.70;;
29026;SDS011;16120;48.608;9.092;2023-09-18T07:21:15;105.47;;;11.10;;
29026;SDS011;16120;48.608;9.092;2023-09-18T07:25:12;105.70;;;11.40;;
29026;SDS011;16120;48.608;9.092;2023-09-18T07:29:07;105.67;;;12.20;;
29026;SDS011;16120;48.608;9.092;2023-09-18T07:33:03;105.10;;;10.97;;
29026;SDS011;16120;48.608;9.092;2023-09-18T07:36:58;105.83;;;12.10;;
29026;SDS011;16120;48.608;9.092;2023-09-18T07:40:54;105.07;;;10.90;;
29026;SDS011;16120;48.608;9.092;2023-09-18T07:44:50;105.40;;;12.27;;
29026;SDS011;16120;48.608;9.092;2023-09-18T07:48:45;105.18;;;11.75;;
29026;SDS011;16120;48.608;9.092;2023-09-18T07:52:40;105.13;;;11.03;;
29026;SDS011;16120;48.608;9.092;2023-09-18T07:56:37;104.97;;;11.33;;
29026;SDS011;16120;48.608;9.092;2023-09-18T08:00:32;104.77;;;11.50;;
29026;SDS011;16120;48.608;9.092;2023-09-18T08:04:27;104.90;;;10.60;;
29026;SDS011;16120;48.608;9.092;2023-09-18T08:08:22;105.53;;;11.40;;
29026;SDS011;16120;48.608;9.092;2023-09-18T08:12:19;104.37;;;11.03;;
29026;SDS011;16120;48.608;9.092;2023-09-18T08:16:14;104.47;;;10.43;;
29026;SDS011;16120;48.608;9.092;2023-09-18T08:20:10;104.47;;;10.10;;
29026;SDS011;16120;48.608;9.092;2023-09-18T08:24:05;104.87;;;10.20;;
29026;SDS011;16120;48.608;9.092;2023-09-18T08:28:02;104.97;;;11.53;;
29026;SDS011;16120;48.608;9.092;2023-09-18T08:31:57;105.10;;;11.47;;
29026;SDS011;16120;48.608;9.092;2023-09-18T08:35:52;105.10;;;10.90;;
29026;SDS011;16120;48.608;9.092;2023-09-18T08:39:47;104.27;;;11.33;;
29026;SDS011;16120;48.608;9.092;2023-09-18T08:43:44;105.70;;;10.97;;
29026;SDS011;16120;48.608;9.092;2023-09-18T08:47:40;105.10;;;11.27;;
29026;SDS011;16120;48.608;9.092;2023-09-18T08:51:35;105.97;;;12.33;;
29026;SDS011;16120;48.608;9.092;2023-09-18T08:55:31;105.23;;;11.37;;
29026;SDS011;16120;48.608;9.092;2023-09-18T08:59:27;105.30;;;12.00;;
29026;SDS011;16120;48.608;9.092;2023-09-18T09:03:24;105.47;;;12.43;;
29026;SDS011;16120;48.608;9.092;2023-09-18T09:07:21;105.40;;;11.63;;
29026;SDS011;16120;48.608;9.092;2023-09-18T09:11:16;105.50;;;11.60;;
29026;SDS011;16120;48.608;9.092;2023-09-18T09:15:13;104.77;;;10.67;;
29026;SDS011;16120;48.608;9.092;2023-09-18T09:19:08;105.27;;;11.73;;
29026;SDS011;16120;48.608;9.092;2023-09-18T09:23:03;104.87;;;11.50;;
29026;SDS011;16120;48.608;9.092;2023-09-18T09:26:59;105.33;;;11.97;;
29026;SDS011;16120;48.608;9.092;2023-09-18T09:30:56;104.37;;;11.30;;
29026;SDS011;16120;48.608;9.092;2023-09-18T09:34:56;105.20;;;11.23;;
29026;SDS011;16120;48.608;9.092;2023-09-18T09:38:54;105.40;;;10.77;;
29026;SDS011;16120;48.608;9.092;2023-09-18T09:42:50;105.87;;;11.93;;
29026;SDS011;16120;48.608;9.092;2023-09-18T09:46:48;105.40;;;12.60;;
29026;SDS011;16120;48.608;9.092;2023-09-18T09:50:43;105.10;;;10.77;;
29026;SDS011;16120;48.608;9.092;2023-09-18T09:54:39;105.07;;;11.00;;
29026;SDS011;16120;48.608;9.092;2023-09-18T09:58:34;104.23;;;11.20;;
29026;SDS011;16120;48.608;9.092;2023-09-18T10:02:31;104.90;;;10.60;;
29026;SDS011;16120;48.608;9.092;2023-09-18T10:06:28;105.17;;;10.83;;
29026;SDS011;16120;48.608;9.092;2023-09-18T10:10:27;104.50;;;10.20;;
29026;SDS011;16120;48.608;9.092;2023-09-18T10:14:26;105.87;;;12.00;;
29026;SDS011;16120;48.608;9.092;2023-09-18T10:18:27;104.77;;;11.67;;
29026;SDS011;16120;48.608;9.092;2023-09-18T10:22:24;104.67;;;10.77;;
29026;SDS011;16120;48.608;9.092;2023-09-18T10:26:23;104.83;;;11.00;;
29026;SDS011;16120;48.608;9.092;2023-09-18T10:30:18;105.67;;;11.50;;
29026;SDS011;16120;48.608;9.092;2023-09-18T10:34:15;105.40;;;11.90;;
29026;SDS011;16120;48.608;9.092;2023-09-18T10:38:10;105.40;;;10.73;;
29026;SDS011;16120;48.608;9.092;2023-09-18T10:42:07;105.40;;;12.20;;
29026;SDS011;16120;48.608;9.092;2023-09-18T10:46:02;103.93;;;11.50;;
29026;SDS011;16120;48.608;9.092;2023-09-18T10:49:59;105.37;;;11.30;;
29026;SDS011;16120;48.608;9.092;2023-09-18T10:53:56;105.97;;;11.67;;
29026;SDS011;16120;48.608;9.092;2023-09-18T10:57:51;104.90;;;11.17;;
29026;SDS011;16120;48.608;9.092;2023-09-18T11:01:46;105.57;;;11.13;;
29026;SDS011;16120;48.608;9.092;2023-09-18T11:05:43;105.13;;;10.97;;
29026;SDS011;16120;48.608;9.092;2023-09-18T11:09:43;105.13;;;11.27;;
29026;SDS011;16120;48.608;9.092;2023-09-18T11:13:39;104.90;;;10.90;;
29026;SDS011;16120;48.608;9.092;2023-09-18T11:17:35;104.67;;;10.73;;
29026;SDS011;16120;48.608;9.092;2023-09-18T11:21:32;104.87;;;11.10;;
29026;SDS011;16120;48.608;9.092;2023-09-18T11:25:28;105.40;;;10.67;;
29026;SDS011;16120;48.608;9.092;2023-09-18T11:29:24;104.40;;;10.53;;
29026;SDS011;16120;48.608;9.092;2023-09-18T11:33:29;104.97;;;10.10;;
29026;SDS011;16120;48.608;9.092;2023-09-18T11:37:26;104.47;;;10.17;;
29026;SDS011;16120;48.608;9.092;2023-09-18T11:41:25;104.80;;;11.27;;
29026;SDS011;16120;48.608;9.092;2023-09-18T11:45:20;105.47;;;11.17;;
29026;SDS011;16120;48.608;9.092;2023-09-18T11:49:18;105.00;;;10.70;;
29026;SDS011;16120;48.608;9.092;2023-09-18T11:53:15;105.17;;;10.40;;
29026;SDS011;16120;48.608;9.092;2023-09-18T11:57:10;105.20;;;10.80;;
29026;SDS011;16120;48.608;9.092;2023-09-18T12:01:08;105.00;;;11.13;;
29026;SDS011;16120;48.608;9.092;2023-09-18T12:05:05;104.47;;;11.20;;
29026;SDS011;16120;48.608;9.092;2023-09-18T12:09:02;104.77;;;11.60;;
29026;SDS011;16120;48.608;9.092;2023-09-18T12:12:57;103.97;;;10.27;;
29026;SDS011;16120;48.608;9.092;2023-09-18T12:16:53;104.30;;;10.57;;
29026;SDS011;16120;48.608;9.092;2023-09-18T12:20:48;104.13;;;10.30;;
29026;SDS011;16120;48.608;9.092;2023-09-18T12:24:44;104.87;;;11.60;;
29026;SDS011;16120;48.608;9.092;2023-09-18T12:28:40;104.97;;;11.00;;
29026;SDS011;16120;48.608;9.092;2023-09-18T12:32:35;104.83;;;10.40;;
29026;SDS011;16120;48.608;9.092;2023-09-18T12:36:31;105.40;;;10.97;;
29026;SDS011;16120;48.608;9.092;2023-09-18T12:40:28;104.10;;;10.40;;
29026;SDS011;16120;48.608;9.092;2023-09-18T12:44:24;104.57;;;10.73;;
29026;SDS011;16120;48.608;9.092;2023-09-18T12:48:19;104.70;;;11.30;;
29026;SDS011;16120;48.608;9.092;2023-09-18T12:52:21;104.37;;;10.90;;
29026;SDS011;16120;48.608;9.092;2023-09-18T12:56:18;103.47;;;10.37;;
29026;SDS011;16120;48.608;9.092;2023-09-18T13:00:13;104.00;;;11.13;;
29026;SDS011;16120;48.608;9.092;2023-09-18T13:04:11;104.50;;;10.33;;
29026;SDS011;16120;48.608;9.092;2023-09-18T13:08:06;102.97;;;9.73;;
29026;SDS011;16120;48.608;9.092;2023-09-18T13:12:03;103.27;;;9.80;;
29026;SDS011;16120;48.608;9.092;2023-09-18T13:15:59;102.80;;;9.57;;
29026;SDS011;16120;48.608;9.092;2023-09-18T13:19:55;102.97;;;9.60;;
29026;SDS011;16120;48.608;9.092;2023-09-18T13:23:50;103.85;;;10.65;;
29026;SDS011;16120;48.608;9.092;2023-09-18T13:27:46;102.37;;;9.57;;
29026;SDS011;16120;48.608;9.092;2023-09-18T13:31:42;102.97;;;9.17;;
29026;SDS011;16120;48.608;9.092;2023-09-18T13:35:37;102.93;;;10.40;;
29026;SDS011;16120;48.608;9.092;2023-09-18T13:39:33;102.67;;;9.60;;
29026;SDS011;16120;48.608;9.092;2023-09-18T13:43:30;101.70;;;9.83;;
29026;SDS011;16120;48.608;9.092;2023-09-18T13:47:25;102.30;;;9.80;;
29026;SDS011;16120;48.608;9.092;2023-09-18T13:51:20;102.40;;;9.67;;
29026;SDS011;16120;48.608;9.092;2023-09-18T13:55:16;101.53;;;9.17;;
29026;SDS011;16120;48.608;9.092;2023-09-18T13:59:12;100.57;;;9.10;;
29026;SDS011;16120;48.608;9.092;2023-09-18T14:03:08;102.20;;;9.43;;
29026;SDS011;16120;48.608;9.092;2023-09-18T14:07:03;102.87;;;9.60;;
29026;SDS011;16120;48.608;9.092;2023-09-18T14:10:58;102.63;;;9.63;;
29026;SDS011;16120;48.608;9.092;2023-09-18T14:14:55;101.77;;;9.37;;
29026;SDS011;16120;48.608;9.092;2023-09-18T14:18:50;102.07;;;9.87;;
29026;SDS011;16120;48.608;9.092;2023-09-18T14:22:45;102.07;;;9.90;;
29026;SDS011;16120;48.608;9.092;2023-09-18T14:26:41;101.77;;;9.03;;
29026;SDS011;16120;48.608;9.092;2023-09-18T14:30:37;103.77;;;10.20;;
29026;SDS011;16120;48.608;9.092;2023-09-18T14:34:32;101.37;;;9.40;;
29026;SDS011;16120;48.608;9.092;2023-09-18T14:38:28;101.27;;;9.20;;
29026;SDS011;16120;48.608;9.092;2023-09-18T14:42:23;101.87;;;9.33;;
29026;SDS011;16120;48.608;9.092;2023-09-18T14:46:19;101.70;;;9.90;;
29026;SDS011;16120;48.608;9.092;2023-09-18T14:50:15;101.27;;;9.40;;
29026;SDS011;16120;48.608;9.092;2023-09-18T14:54:10;101.77;;;9.10;;
29026;SDS011;16120;48.608;9.092;2023-09-18T14:58:05;101.90;;;9.60;;
29026;SDS011;16120;48.608;9.092;2023-09-18T15:02:02;100.97;;;9.27;;
29026;SDS011;16120;48.608;9.092;2023-09-18T15:05:57;101.47;;;9.80;;
29026;SDS011;16120;48.608;9.092;2023-09-18T15:09:52;102.00;;;9.67;;
29026;SDS011;16120;48.608;9.092;2023-09-18T15:13:47;101.50;;;9.60;;
29026;SDS011;16120;48.608;9.092;2023-09-18T15:17:44;101.77;;;9.77;;
29026;SDS011;16120;48.608;9.092;2023-09-18T15:21:39;100.47;;;9.57;;
29026;SDS011;16120;48.608;9.092;2023-09-18T15:25:34;101.87;;;9.23;;
29026;SDS011;16120;48.608;9.092;2023-09-18T15:29:29;101.77;;;9.80;;
29026;SDS011;16120;48.608;9.092;2023-09-18T15:33:26;101.80;;;10.03;;
29026;SDS011;16120;48.608;9.092;2023-09-18T15:37:21;102.07;;;10.33;;
29026;SDS011;16120;48.608;9.092;2023-09-18T15:41:16;102.53;;;9.97;;
29026;SDS011;16120;48.608;9.092;2023-09-18T15:45:13;101.47;;;9.67;;
29026;SDS011;16120;48.608;9.092;2023-09-18T15:49:10;101.77;;;9.63;;
29026;SDS011;16120;48.608;9.092;2023-09-18T15:53:05;102.37;;;9.63;;
29026;SDS011;16120;48.608;9.092;2023-09-18T15:57:00;101.97;;;9.50;;
29026;SDS011;16120;48.608;9.092;2023-09-18T16:00:55;102.00;;;10.13;;
29026;SDS011;16120;48.608;9.092;2023-09-18T16:04:52;102.30;;;9.90;;
29026;SDS011;16120;48.608;9.092;2023-09-18T16:08:48;102.50;;;10.53;;
29026;SDS011;16120;48.608;9.092;2023-09-18T16:12:43;101.72;;;9.80;;
29026;SDS011;16120;48.608;9.092;2023-09-18T16:16:38;103.57;;;10.10;;
29026;SDS011;16120;48.608;9.092;2023-09-18T16:20:34;102.40;;;11.07;;
29026;SDS011;16120;48.608;9.092;2023-09-18T16:24:30;101.93;;;10.40;;
29026;SDS011;16120;48.608;9.092;2023-09-18T16:28:25;102.07;;;9.67;;
29026;SDS011;16120;48.608;9.092;2023-09-18T16:32:20;101.88;;;10.48;;
29026;SDS011;16120;48.608;9.092;2023-09-18T16:36:17;101.80;;;9.73;;
29026;SDS011;16120;48.608;9.092;2023-09-18T16:40:12;102.43;;;10.00;;
29026;SDS011;16120;48.608;9.092;2023-09-18T16:44:07;102.23;;;9.90;;
29026;SDS011;16120;48.608;9.092;2023-09-18T16:48:03;102.50;;;9.90;;
29026;SDS011;16120;48.608;9.092;2023-09-18T16:52:00;102.93;;;10.80;;
29026;SDS011;16120;48.608;9.092;2023-09-18T16:55:55;102.97;;;10.37;;
29026;SDS011;16120;48.608;9.092;2023-09-18T16:59:50;103.17;;;11.00;;
29026;SDS011;16120;48.608;9.092;2023-09-18T17:03:45;103.60;;;11.50;;
29026;SDS011;16120;48.608;9.092;2023-09-18T17:07:42;103.23;;;10.43;;
29026;SDS011;16120;48.608;9.092;2023-09-18T17:11:37;103.60;;;10.17;;
29026;SDS011;16120;48.608;9.092;2023-09-18T17:15:32;103.60;;;10.77;;
29026;SDS011;16120;48.608;9.092;2023-09-18T17:19:27;103.33;;;10.10;;
29026;SDS011;16120;48.608;9.092;2023-09-18T17:23:24;103.57;;;10.67;;
29026;SDS011;16120;48.608;9.092;2023-09-18T17:27:19;103.80;;;10.80;;
29026;SDS011;16120;48.608;9.092;2023-09-18T17:31:14;103.70;;;9.77;;
29026;SDS011;16120;48.608;9.092;2023-09-18T17:35:10;104.20;;;10.43;;
29026;SDS011;16120;48.608;9.092;2023-09-18T17:39:06;104.33;;;10.40;;
29026;SDS011;16120;48.608;9.092;2023-09-18T17:43:01;103.23;;;10.70;;
29026;SDS011;16120;48.608;9.092;2023-09-18T17:46:57;103.50;;;10.70;;
29026;SDS011;16120;48.608;9.092;2023-09-18T17:50:52;103.95;;;10.60;;
29026;SDS011;16120;48.608;9.092;2023-09-18T17:54:49;103.63;;;9.88;;
29026;SDS011;16120;48.608;9.092;2023-09-18T17:58:45;103.60;;;10.07;;
29026;SDS011;16120;48.608;9.092;2023-09-18T18:02:40;102.90;;;9.10;;
29026;SDS011;16120;48.608;9.092;2023-09-18T18:06:35;103.87;;;9.87;;
29026;SDS011;16120;48.608;9.092;2023-09-18T18:10:32;104.63;;;10.50;;
29026;SDS011;16120;48.608;9.092;2023-09-18T18:14:27;104.67;;;10.17;;
29026;SDS011;16120;48.608;9.092;2023-09-18T18:18:22;104.67;;;10.87;;
29026;SDS011;16120;48.608;9.092;2023-09-18T18:22:17;104.33;;;9.60;;
29026;SDS011;16120;48.608;9.092;2023-09-18T18:26:15;105.37;;;10.80;;
29026;SDS011;16120;48.608;9.092;2023-09-18T18:30:11;104.43;;;10.17;;
29026;SDS011;16120;48.608;9.092;2023-09-18T18:34:07;105.37;;;9.93;;
29026;SDS011;16120;48.608;9.092;2023-09-18T18:38:02;105.20;;;11.10;;
29026;SDS011;16120;48.608;9.092;2023-09-18T18:41:58;104.63;;;10.10;;
29026;SDS011;16120;48.608;9.092;2023-09-18T18:45:54;105.80;;;11.37;;
29026;SDS011;16120;48.608;9.092;2023-09-18T18:49:49;105.70;;;10.63;;
29026;SDS011;16120;48.608;9.092;2023-09-18T18:53:44;105.57;;;11.20;;
29026;SDS011;16120;48.608;9.092;2023-09-18T18:57:41;105.10;;;10.60;;
29026;SDS011;16120;48.608;9.092;2023-09-18T19:01:36;104.57;;;10.10;;
29026;SDS011;16120;48.608;9.092;2023-09-18T19:05:31;105.40;;;10.70;;
29026;SDS011;16120;48.608;9.092;2023-09-18T19:09:27;105.93;;;11.80;;
29026;SDS011;16120;48.608;9.092;2023-09-18T19:13:23;104.90;;;10.17;;
29026;SDS011;16120;48.608;9.092;2023-09-18T19:17:21;105.57;;;11.10;;
29026;SDS011;16120;48.608;9.092;2023-09-18T19:21:16;106.00;;;11.80;;
29026;SDS011;16120;48.608;9.092;2023-09-18T19:25:11;106.17;;;10.63;;
29026;SDS011;16120;48.608;9.092;2023-09-18T19:29:08;105.93;;;11.23;;
29026;SDS011;16120;48.608;9.092;2023-09-18T19:33:03;107.87;;;11.10;;
29026;SDS011;16120;48.608;9.092;2023-09-18T19:36:59;106.27;;;12.10;;
29026;SDS011;16120;48.608;9.092;2023-09-18T19:40:54;106.50;;;11.57;;
29026;SDS011;16120;48.608;9.092;2023-09-18T19:44:50;105.67;;;10.70;;
29026;SDS011;16120;48.608;9.092;2023-09-18T19:48:46;105.57;;;11.10;;
29026;SDS011;16120;48.608;9.092;2023-09-18T19:52:41;106.50;;;10.77;;
29026;SDS011;16120;48.608;9.092;2023-09-18T19:56:36;106.13;;;11.30;;
29026;SDS011;16120;48.608;9.092;2023-09-18T20:00:33;107.10;;;12.37;;
29026;SDS011;16120;48.608;9.092;2023-09-18T20:04:28;106.17;;;10.87;;
29026;SDS011;16120;48.608;9.092;2023-09-18T20:08:23;106.17;;;10.53;;
29026;SDS011;16120;48.608;9.092;2023-09-18T20:12:18;106.57;;;11.80;;
29026;SDS011;16120;48.608;9.092;2023-09-18T20:16:15;106.10;;;10.73;;
29026;SDS011;16120;48.608;9.092;2023-09-18T20:20:10;105.70;;;10.90;;
29026;SDS011;16120;48.608;9.092;2023-09-18T20:24:06;106.60;;;11.87;;
29026;SDS011;16120;48.608;9.092;2023-09-18T20:28:02;106.23;;;11.67;;
29026;SDS011;16120;48.608;9.092;2023-09-18T20:31:58;106.53;;;11.47;;
29026;SDS011;16120;48.608;9.092;2023-09-18T20:35:56;106.30;;;10.17;;
29026;SDS011;16120;48.608;9.092;2023-09-18T20:39:52;106.47;;;10.70;;
29026;SDS011;16120;48.608;9.092;2023-09-18T20:43:47;105.80;;;10.83;;
29026;SDS011;16120;48.608;9.092;2023-09-18T20:47:43;106.53;;;11.38;;
29026;SDS011;16120;48.608;9.092;2023-09-18T20:51:39;106.20;;;10.97;;
29026;SDS011;16120;48.608;9.092;2023-09-18T20:55:34;107.17;;;11.23;;
29026;SDS011;16120;48.608;9.092;2023-09-18T20:59:29;106.20;;;10.40;;
29026;SDS011;16120;48.608;9.092;2023-09-18T21:03:26;106.90;;;11.03;;
29026;SDS011;16120;48.608;9.092;2023-09-18T21:07:21;106.70;;;10.87;;
29026;SDS011;16120;48.608;9.092;2023-09-18T21:11:16;106.67;;;10.80;;
29026;SDS011;16120;48.608;9.092;2023-09-18T21:15:11;107.20;;;11.40;;
29026;SDS011;16120;48.608;9.092;2023-09-18T21:19:09;107.47;;;11.43;;
29026;SDS011;16120;48.608;9.092;2023-09-18T21:23:04;107.57;;;11.43;;
29026;SDS011;16120;48.608;9.092;2023-09-18T21:26:59;106.97;;;10.60;;
29026;SDS011;16120;48.608;9.092;2023-09-18T21:30:58;106.87;;;10.37;;
29026;SDS011;16120;48.608;9.092;2023-09-18T21:35:02;107.23;;;11.27;;
29026;SDS011;16120;48.608;9.092;2023-09-18T21:38:57;110.17;;;10.97;;
29026;SDS011;16120;48.608;9.092;2023-09-18T21:42:52;106.60;;;10.13;;
29026;SDS011;16120;48.608;9.092;2023-09-18T21:46:48;106.88;;;11.45;;
29026;SDS011;16120;48.608;9.092;2023-09-18T21:50:44;107.47;;;11.47;;
29026;SDS011;16120;48.608;9.092;2023-09-18T21:54:40;107.07;;;10.20;;
29026;SDS011;16120;48.608;9.092;2023-09-18T21:58:35;107.50;;;11.07;;
29026;SDS011;16120;48.608;9.092;2023-09-18T22:02:30;107.40;;;10.10;;
29026;SDS011;16120;48.608;9.092;2023-09-18T22:06:27;107.00;;;10.20;;
29026;SDS011;16120;48.608;9.092;2023-09-18T22:10:22;107.53;;;11.23;;
29026;SDS011;16120;48.608;9.092;2023-09-18T22:14:17;107.43;;;11.07;;
29026;SDS011;16120;48.608;9.092;2023-09-18T22:18:12;107.67;;;11.20;;
29026;SDS011;16120;48.608;9.092;2023-09-18T22:22:09;106.90;;;10.37;;
29026;SDS011;16120;48.608;9.092;2023-09-18T22:26:04;107.13;;;10.27;;
29026;SDS011;16120;48.608;9.092;2023-09-18T22:29:59;107.33;;;10.87;;
29026;SDS011;16120;48.608;9.092;2023-09-18T22:33:55;107.30;;;10.80;;
29026;SDS011;16120;48.608;9.092;2023-09-18T22:37:53;106.90;;;10.50;;
29026;SDS011;16120;48.608;9.092;2023-09-18T22:58:10;107.57;;;10.80;;
29026;SDS011;16120;48.608;9.092;2023-09-18T23:02:06;107.47;;;10.33;;
29026;SDS011;16120;48.608;9.092;2023-09-18T23:06:01;107.90;;;11.40;;
29026;SDS011;16120;48.608;9.092;2023-09-18T23:09:56;107.40;;;10.30;;